Time;durP1;ratioP1;P1;durP2;ratioP2;P2;SDS_P1;SDS_P2;PMS_P1;PMS_P2;Temp;Humidity;BMP_temperature;BMP_pressure;BME280_temperature;BME280_humidity;BME280_pressure;Samples;Min_cycle;Max_cycle;Signal;HPM_P1;HPM_P2
2023/03/23 00:01:51;;;;;;;18.75;17.33;;;11.30;99.90;;;;;;4991377;28;20650;-76
2023/03/23 00:04:18;;;;;;;18.50;17.40;;;11.40;99.90;;;;;;4985164;28;20446;-77
2023/03/23 00:06:45;;;;;;;18.90;17.63;;;11.40;99.90;;;;;;4988679;28;20045;-76
2023/03/23 00:09:12;;;;;;;19.25;18.13;;;11.50;99.90;;;;;;4973708;28;20073;-74
2023/03/23 00:11:38;;;;;;;20.48;18.73;;;11.50;99.90;;;;;;4995999;28;20030;-77
2023/03/23 00:14:05;;;;;;;19.48;18.00;;;11.50;99.90;;;;;;4987081;28;20068;-76
2023/03/23 00:16:33;;;;;;;20.00;18.42;;;11.50;99.90;;;;;;5002868;28;20232;-76
2023/03/23 00:19:05;;;;;;;19.23;17.92;;;11.40;99.90;;;;;;4987393;28;20037;-76
2023/03/23 00:21:38;;;;;;;18.88;17.67;;;11.50;99.90;;;;;;4996098;28;20088;-73
2023/03/23 00:24:15;;;;;;;19.15;17.92;;;11.50;99.90;;;;;;4992992;28;20042;-76
2023/03/23 00:26:43;;;;;;;19.05;17.90;;;11.50;99.90;;;;;;4983476;28;20034;-75
2023/03/23 00:29:21;;;;;;;19.40;18.10;;;11.50;99.90;;;;;;4984705;28;20043;-74
2023/03/23 00:31:50;;;;;;;17.92;16.75;;;11.60;99.90;;;;;;4969417;28;20037;-75
2023/03/23 00:34:19;;;;;;;17.52;16.52;;;11.60;99.90;;;;;;4987552;28;20075;-76
2023/03/23 00:36:50;;;;;;;18.55;17.33;;;11.60;99.90;;;;;;4976429;28;20025;-74
2023/03/23 00:39:17;;;;;;;17.95;16.50;;;11.60;99.90;;;;;;4968456;28;20030;-75
2023/03/23 00:41:44;;;;;;;17.70;16.25;;;11.50;99.90;;;;;;4971424;28;20038;-74
2023/03/23 00:44:17;;;;;;;17.25;16.15;;;11.40;99.90;;;;;;4985266;28;20044;-76
2023/03/23 00:46:48;;;;;;;16.73;15.50;;;11.40;99.90;;;;;;4992181;28;20034;-76
2023/03/23 00:49:17;;;;;;;16.90;15.60;;;11.40;99.90;;;;;;4978273;28;20046;-75
2023/03/23 00:51:43;;;;;;;16.58;15.25;;;11.30;99.90;;;;;;4974732;28;20115;-75
2023/03/23 00:54:10;;;;;;;16.35;15.05;;;11.30;99.90;;;;;;4986482;28;20149;-75
2023/03/23 00:56:36;;;;;;;15.88;14.80;;;11.30;99.90;;;;;;4992244;28;20112;-76
2023/03/23 00:59:03;;;;;;;15.55;14.52;;;11.30;99.90;;;;;;4969749;28;20042;-75
2023/03/23 01:01:30;;;;;;;16.38;15.20;;;11.20;99.90;;;;;;4978747;28;20116;-76
2023/03/23 01:04:00;;;;;;;17.23;16.13;;;11.30;99.90;;;;;;4970078;28;20180;-76
2023/03/23 01:06:28;;;;;;;16.15;14.98;;;11.30;99.90;;;;;;4968973;28;20034;-76
2023/03/23 01:08:54;;;;;;;16.05;15.05;;;11.30;99.90;;;;;;4986203;28;20030;-75
2023/03/23 01:11:20;;;;;;;16.50;15.40;;;11.30;99.90;;;;;;5002719;28;20770;-76
2023/03/23 01:13:46;;;;;;;16.83;15.45;;;11.30;99.90;;;;;;4991224;28;20096;-77
2023/03/23 01:16:12;;;;;;;15.93;14.75;;;11.30;99.90;;;;;;4983224;28;20044;-76
2023/03/23 01:18:39;;;;;;;16.65;15.55;;;11.30;99.90;;;;;;4976243;28;20042;-75
2023/03/23 01:21:14;;;;;;;15.95;14.88;;;11.30;99.90;;;;;;4968489;28;20038;-79
2023/03/23 01:23:40;;;;;;;16.50;15.13;;;11.30;99.90;;;;;;4991786;28;20105;-77
2023/03/23 01:26:15;;;;;;;14.68;13.75;;;11.20;99.90;;;;;;4969775;28;20058;-78
2023/03/23 01:28:41;;;;;;;15.18;13.95;;;11.20;99.90;;;;;;4989207;28;20037;-78
2023/03/23 01:31:11;;;;;;;14.27;13.18;;;11.10;99.90;;;;;;4985885;28;20026;-77
2023/03/23 01:33:39;;;;;;;14.70;13.45;;;11.10;99.90;;;;;;4989658;28;20033;-78
2023/03/23 01:36:07;;;;;;;13.70;12.95;;;11.10;99.90;;;;;;4994242;28;20045;-78
2023/03/23 01:38:35;;;;;;;13.43;12.38;;;11.00;99.90;;;;;;4976489;28;20121;-78
2023/03/23 01:41:01;;;;;;;13.77;12.80;;;11.00;99.90;;;;;;4965461;28;20042;-78
2023/03/23 01:43:27;;;;;;;13.82;12.90;;;11.00;99.90;;;;;;4988583;28;20543;-77
2023/03/23 01:45:53;;;;;;;14.25;13.35;;;11.00;99.90;;;;;;4995779;28;20042;-77
2023/03/23 01:48:33;;;;;;;13.25;12.45;;;11.00;99.90;;;;;;5009816;28;20347;-77
2023/03/23 01:51:07;;;;;;;13.98;13.27;;;11.10;99.90;;;;;;4959234;28;20042;-79
2023/03/23 01:53:38;;;;;;;15.53;14.13;;;11.10;99.90;;;;;;4962280;28;20034;-77
2023/03/23 01:56:06;;;;;;;14.25;13.25;;;11.10;99.90;;;;;;4977092;28;20283;-77
2023/03/23 01:58:35;;;;;;;14.68;13.60;;;11.10;99.90;;;;;;4972037;28;20038;-78
2023/03/23 02:01:06;;;;;;;14.70;13.65;;;11.10;99.90;;;;;;4970992;28;20117;-78
2023/03/23 02:03:34;;;;;;;15.05;14.05;;;11.10;99.90;;;;;;4991809;28;20063;-77
2023/03/23 02:06:00;;;;;;;14.15;13.30;;;11.20;99.90;;;;;;4972921;28;20077;-78
2023/03/23 02:08:35;;;;;;;14.35;13.43;;;11.10;99.90;;;;;;4989000;28;20076;-79
2023/03/23 02:11:08;;;;;;;14.98;13.98;;;11.10;99.90;;;;;;4973702;28;20657;-77
2023/03/23 02:13:34;;;;;;;14.05;13.30;;;11.00;99.90;;;;;;4982117;28;20542;-77
2023/03/23 02:16:14;;;;;;;14.13;13.00;;;11.10;99.90;;;;;;4987078;28;20034;-78
2023/03/23 02:19:06;;;;;;;15.25;13.85;;;11.10;99.90;;;;;;5004150;28;20053;-77
2023/03/23 02:21:46;;;;;;;14.63;13.70;;;11.20;99.90;;;;;;4982280;28;20220;-77
2023/03/23 02:24:18;;;;;;;14.40;13.50;;;11.20;99.90;;;;;;4969745;28;20053;-77
2023/03/23 02:27:11;;;;;;;15.38;14.38;;;11.20;99.90;;;;;;4972490;28;20041;-79
2023/03/23 02:30:14;;;;;;;15.45;14.38;;;11.30;99.90;;;;;;4988499;28;20579;-78
2023/03/23 02:32:43;;;;;;;14.55;13.65;;;11.20;99.90;;;;;;4985276;28;20042;-78
2023/03/23 02:35:22;;;;;;;13.65;12.88;;;11.20;99.90;;;;;;4970280;28;20068;-75
2023/03/23 02:37:59;;;;;;;13.32;12.27;;;11.20;99.90;;;;;;4998047;28;20037;-79
2023/03/23 02:40:30;;;;;;;12.85;12.05;;;11.00;99.90;;;;;;4985390;28;20061;-79
2023/03/23 02:42:58;;;;;;;13.85;12.57;;;11.00;99.90;;;;;;4965839;28;20129;-80
2023/03/23 02:45:27;;;;;;;12.45;11.65;;;10.90;99.90;;;;;;4970059;28;20038;-78
2023/03/23 02:47:54;;;;;;;12.27;11.48;;;10.90;99.90;;;;;;5012690;28;20061;-79
2023/03/23 02:50:23;;;;;;;11.52;10.48;;;10.90;99.90;;;;;;4986025;28;20038;-79
2023/03/23 02:52:50;;;;;;;11.57;10.68;;;10.90;99.90;;;;;;4987038;28;20046;-78
2023/03/23 02:55:18;;;;;;;10.02;9.10;;;10.80;99.90;;;;;;4987300;28;20065;-78
2023/03/23 02:57:45;;;;;;;9.75;9.07;;;10.80;99.90;;;;;;4987544;28;20037;-79
2023/03/23 03:00:16;;;;;;;10.13;9.20;;;10.70;99.90;;;;;;4973978;28;20038;-80
2023/03/23 03:02:44;;;;;;;9.50;8.70;;;10.70;99.90;;;;;;4986492;28;20048;-77
2023/03/23 03:05:37;;;;;;;9.15;8.50;;;10.70;99.90;;;;;;4984855;28;20380;-78
2023/03/23 03:08:18;;;;;;;10.05;9.07;;;10.60;99.90;;;;;;4971861;28;20041;-80
2023/03/23 03:10:58;;;;;;;8.32;7.78;;;10.60;99.90;;;;;;4985271;28;20048;-80
2023/03/23 03:13:38;;;;;;;8.82;8.05;;;10.60;99.90;;;;;;5004190;28;20076;-78
2023/03/23 03:16:26;;;;;;;10.35;9.40;;;10.60;99.90;;;;;;4968801;28;20719;-78
2023/03/23 03:19:07;;;;;;;8.70;7.70;;;10.50;99.90;;;;;;4970587;28;20712;-79
2023/03/23 03:21:36;;;;;;;8.50;7.38;;;10.50;99.90;;;;;;4979857;28;20288;-78
2023/03/23 03:24:07;;;;;;;7.70;6.90;;;10.40;99.90;;;;;;4971525;28;20046;-80
2023/03/23 03:26:35;;;;;;;6.60;6.10;;;10.40;99.90;;;;;;4969612;28;20037;-78
2023/03/23 03:29:20;;;;;;;6.72;6.20;;;10.20;99.90;;;;;;4987610;28;20042;-78
2023/03/23 03:31:51;;;;;;;6.25;5.65;;;10.20;99.90;;;;;;4976576;28;20048;-80
2023/03/23 03:34:17;;;;;;;6.68;5.28;;;10.20;99.90;;;;;;4969902;28;20578;-79
2023/03/23 03:36:47;;;;;;;6.53;5.72;;;10.20;99.90;;;;;;4975650;28;20632;-78
2023/03/23 03:39:15;;;;;;;6.10;5.57;;;10.20;99.90;;;;;;4987432;28;20131;-76
2023/03/23 03:41:43;;;;;;;6.38;4.93;;;10.20;99.90;;;;;;4970628;28;20061;-77
2023/03/23 03:44:10;;;;;;;6.47;5.80;;;10.10;99.90;;;;;;4990337;28;20042;-78
2023/03/23 03:46:37;;;;;;;7.85;5.63;;;10.10;99.90;;;;;;4993290;28;20037;-77
2023/03/23 03:49:06;;;;;;;5.32;4.85;;;10.10;99.90;;;;;;4985054;28;20096;-75
2023/03/23 03:51:35;;;;;;;5.55;5.05;;;10.00;99.90;;;;;;4970286;28;20026;-78
2023/03/23 03:54:03;;;;;;;5.40;4.88;;;10.00;99.90;;;;;;4976694;28;20083;-78
2023/03/23 03:56:31;;;;;;;6.80;4.70;;;10.00;99.90;;;;;;4979195;28;20042;-78
2023/03/23 03:59:10;;;;;;;10.25;5.55;;;10.00;99.90;;;;;;4997514;28;20406;-78
2023/03/23 04:01:53;;;;;;;6.00;5.60;;;10.10;99.90;;;;;;4992043;28;20048;-77
2023/03/23 04:04:21;;;;;;;7.22;5.93;;;10.10;99.90;;;;;;4969887;28;20045;-78
2023/03/23 04:06:48;;;;;;;7.22;5.90;;;10.10;99.90;;;;;;4985345;28;20080;-79
2023/03/23 04:09:14;;;;;;;5.90;5.40;;;10.10;99.90;;;;;;4968323;28;20042;-76
2023/03/23 04:11:40;;;;;;;5.70;5.22;;;10.10;99.90;;;;;;4991234;28;20554;-77
2023/03/23 04:14:29;;;;;;;5.10;4.70;;;10.10;99.90;;;;;;4984106;28;20044;-78
2023/03/23 04:16:56;;;;;;;5.00;4.50;;;10.00;99.90;;;;;;4987201;28;20046;-76
2023/03/23 04:19:23;;;;;;;4.90;4.43;;;10.00;99.90;;;;;;4985445;28;20042;-76
2023/03/23 04:21:49;;;;;;;5.70;3.95;;;10.00;99.90;;;;;;4966164;28;20049;-78
2023/03/23 04:24:16;;;;;;;5.53;4.00;;;10.00;99.90;;;;;;4975439;28;20707;-77
2023/03/23 04:26:42;;;;;;;4.13;3.80;;;9.90;99.90;;;;;;4991402;28;20029;-77
2023/03/23 04:29:19;;;;;;;4.25;3.85;;;9.90;99.90;;;;;;4971064;28;20042;-77
2023/03/23 04:32:06;;;;;;;3.58;3.28;;;10.00;99.90;;;;;;4986765;28;20188;-80
2023/03/23 04:34:37;;;;;;;4.07;3.85;;;10.00;99.90;;;;;;4970256;28;20109;-78
2023/03/23 04:37:03;;;;;;;4.20;3.80;;;10.00;99.90;;;;;;4985058;28;20604;-78
2023/03/23 04:39:33;;;;;;;4.38;3.95;;;10.00;99.90;;;;;;4963285;28;20034;-78
2023/03/23 04:42:01;;;;;;;4.90;4.50;;;10.00;99.90;;;;;;4985401;28;20219;-78
2023/03/23 04:44:53;;;;;;;4.50;4.10;;;10.10;99.90;;;;;;4983707;28;20081;-79
2023/03/23 04:47:20;;;;;;;5.20;4.80;;;10.10;99.90;;;;;;4984086;28;20042;-79
2023/03/23 04:49:53;;;;;;;5.03;4.72;;;10.00;99.90;;;;;;4970761;28;20038;-78
2023/03/23 04:52:28;;;;;;;5.15;4.85;;;10.10;99.90;;;;;;4967472;28;20030;-79
2023/03/23 04:54:56;;;;;;;5.90;5.60;;;10.10;99.90;;;;;;4968948;28;20037;-79
2023/03/23 04:57:23;;;;;;;6.15;5.68;;;10.10;99.90;;;;;;4983614;28;20326;-77
2023/03/23 05:00:12;;;;;;;5.72;5.32;;;10.10;99.90;;;;;;4987521;28;20103;-79
2023/03/23 05:02:42;;;;;;;5.90;5.60;;;10.10;99.90;;;;;;4973193;28;20496;-78
2023/03/23 05:05:10;;;;;;;6.47;5.97;;;10.10;99.90;;;;;;4969679;28;20121;-78
2023/03/23 05:07:38;;;;;;;6.38;5.97;;;10.00;99.90;;;;;;4969006;28;20519;-78
2023/03/23 05:10:06;;;;;;;6.78;6.35;;;10.00;99.90;;;;;;4985988;28;20507;-77
2023/03/23 05:12:32;;;;;;;7.88;7.47;;;10.10;99.90;;;;;;4996398;28;20056;-76
2023/03/23 05:15:01;;;;;;;7.90;7.50;;;10.10;99.90;;;;;;4997427;28;20213;-79
2023/03/23 05:17:30;;;;;;;8.77;7.97;;;10.10;99.90;;;;;;4988878;28;20042;-77
2023/03/23 05:19:58;;;;;;;7.65;7.25;;;10.10;99.90;;;;;;4990411;28;20124;-76
2023/03/23 05:22:36;;;;;;;8.40;7.80;;;10.20;99.90;;;;;;4987726;28;20214;-78
2023/03/23 05:25:04;;;;;;;9.23;8.73;;;10.10;99.90;;;;;;4983528;28;20121;-78
2023/03/23 05:27:33;;;;;;;11.05;10.35;;;10.20;99.90;;;;;;4971303;28;20033;-77
2023/03/23 05:30:05;;;;;;;9.70;9.20;;;10.30;99.90;;;;;;4987920;28;20462;-79
2023/03/23 05:32:32;;;;;;;9.50;9.05;;;10.20;99.90;;;;;;4987833;28;20034;-78
2023/03/23 05:35:09;;;;;;;10.82;10.23;;;10.30;99.90;;;;;;4988230;28;20045;-78
2023/03/23 05:37:34;;;;;;;10.20;9.70;;;10.40;99.90;;;;;;4986678;28;20038;-77
2023/03/23 05:40:08;;;;;;;10.32;9.63;;;10.30;99.90;;;;;;4970924;28;20049;-78
2023/03/23 05:42:41;;;;;;;9.32;8.73;;;10.40;99.90;;;;;;4988393;28;20030;-79
2023/03/23 05:45:16;;;;;;;10.00;9.38;;;10.30;99.90;;;;;;4984937;28;20045;-76
2023/03/23 05:47:42;;;;;;;9.85;9.35;;;10.30;99.90;;;;;;4971681;28;20774;-78
2023/03/23 05:50:13;;;;;;;13.02;12.40;;;10.30;99.90;;;;;;4976699;28;20045;-78
2023/03/23 05:52:40;;;;;;;12.35;11.65;;;10.30;99.90;;;;;;4992788;28;20542;-79
2023/03/23 05:55:09;;;;;;;13.93;13.20;;;10.30;99.90;;;;;;4984821;28;20121;-76
2023/03/23 05:57:37;;;;;;;13.32;12.73;;;10.30;99.90;;;;;;4987558;28;20053;-76
2023/03/23 06:00:29;;;;;;;13.63;12.82;;;10.30;99.90;;;;;;4980652;28;20426;-78
2023/03/23 06:03:04;;;;;;;13.68;12.85;;;10.30;99.90;;;;;;4985539;28;20038;-77
2023/03/23 06:05:45;;;;;;;13.57;12.83;;;10.30;99.90;;;;;;4982190;28;20037;-77
2023/03/23 06:08:14;;;;;;;13.45;12.68;;;10.40;99.90;;;;;;4970498;28;20499;-77
2023/03/23 06:10:40;;;;;;;13.90;13.20;;;10.40;99.90;;;;;;4986476;28;20034;-78
2023/03/23 06:13:07;;;;;;;13.95;12.95;;;10.40;99.90;;;;;;4984061;28;20739;-76
2023/03/23 06:15:47;;;;;;;13.38;12.77;;;10.40;99.90;;;;;;4972114;28;20030;-76
2023/03/23 06:18:40;;;;;;;14.15;13.35;;;10.40;99.90;;;;;;4996941;28;20065;-77
2023/03/23 06:21:15;;;;;;;13.00;12.20;;;10.30;99.90;;;;;;4985485;28;20046;-77
2023/03/23 06:23:56;;;;;;;13.23;12.48;;;10.30;99.90;;;;;;4977522;28;20546;-79
2023/03/23 06:26:31;;;;;;;14.48;13.68;;;10.40;99.90;;;;;;4983512;28;20683;-76
2023/03/23 06:28:59;;;;;;;14.02;13.13;;;10.50;99.90;;;;;;4983105;28;20156;-77
2023/03/23 06:31:27;;;;;;;15.82;14.98;;;10.60;99.90;;;;;;4975562;28;20752;-76
2023/03/23 06:33:53;;;;;;;15.43;14.60;;;10.60;99.90;;;;;;4986204;28;20491;-76
2023/03/23 06:36:39;;;;;;;16.30;15.40;;;10.60;99.90;;;;;;4996003;28;20037;-76
2023/03/23 06:39:10;;;;;;;16.80;15.73;;;10.70;99.90;;;;;;4975837;28;20046;-78
2023/03/23 06:42:02;;;;;;;16.92;15.95;;;10.80;99.90;;;;;;5000145;28;20046;-75
2023/03/23 06:44:33;;;;;;;16.73;15.93;;;10.90;99.90;;;;;;4992449;28;20040;-77
2023/03/23 06:46:59;;;;;;;17.33;16.42;;;10.90;99.90;;;;;;4970580;28;20054;-76
2023/03/23 06:49:28;;;;;;;17.63;16.52;;;10.90;99.90;;;;;;4969913;28;20069;-79
2023/03/23 06:52:13;;;;;;;18.45;17.25;;;10.90;99.90;;;;;;4986366;28;20095;-77
2023/03/23 06:54:39;;;;;;;17.40;16.30;;;10.90;99.90;;;;;;4986067;28;20072;-77
2023/03/23 06:57:07;;;;;;;17.02;16.13;;;10.90;99.90;;;;;;4968944;28;20046;-77
2023/03/23 06:59:33;;;;;;;19.35;18.10;;;10.90;99.90;;;;;;4989742;28;20062;-79
2023/03/23 07:02:00;;;;;;;18.73;17.27;;;10.90;99.90;;;;;;4966589;28;20054;-79
2023/03/23 07:04:25;;;;;;;18.52;17.52;;;10.90;99.90;;;;;;4985591;28;20121;-78
2023/03/23 07:07:06;;;;;;;19.30;18.15;;;11.00;99.90;;;;;;4987343;28;20038;-77
2023/03/23 07:09:37;;;;;;;17.20;16.30;;;11.00;99.90;;;;;;4981617;28;20034;-77
2023/03/23 07:12:03;;;;;;;18.17;17.13;;;11.00;99.90;;;;;;4992059;28;20070;-76
2023/03/23 07:14:35;;;;;;;19.13;18.00;;;11.10;99.90;;;;;;4966173;28;20109;-78
2023/03/23 07:17:00;;;;;;;18.95;17.75;;;11.20;99.90;;;;;;4967831;28;20042;-77
2023/03/23 07:19:27;;;;;;;18.17;17.23;;;11.20;99.90;;;;;;4973616;28;20418;-77
2023/03/23 07:21:53;;;;;;;19.00;18.00;;;11.20;99.90;;;;;;4971986;28;20042;-78
2023/03/23 07:24:21;;;;;;;20.88;19.55;;;11.20;99.90;;;;;;4984099;28;20045;-77
2023/03/23 07:27:04;;;;;;;20.05;18.67;;;11.30;99.90;;;;;;4986624;28;20168;-76
2023/03/23 07:29:30;;;;;;;20.20;19.10;;;11.40;99.90;;;;;;4972607;28;20049;-79
2023/03/23 07:32:11;;;;;;;20.50;19.10;;;11.50;99.90;;;;;;4973171;28;20038;-77
2023/03/23 07:34:37;;;;;;;21.23;19.83;;;11.40;99.90;;;;;;4967443;28;20455;-78
2023/03/23 07:37:32;;;;;;;21.38;20.10;;;11.40;99.90;;;;;;4988877;28;20148;-76
2023/03/23 07:39:58;;;;;;;27.70;25.80;;;11.40;99.90;;;;;;4970861;28;20424;-77
2023/03/23 07:42:23;;;;;;;26.33;24.83;;;11.50;99.90;;;;;;4990569;28;20046;-76
2023/03/23 07:44:56;;;;;;;23.85;22.35;;;11.50;99.90;;;;;;4995556;28;20048;-78
2023/03/23 07:47:21;;;;;;;23.73;22.33;;;11.50;99.90;;;;;;4983542;28;20038;-76
2023/03/23 07:49:48;;;;;;;24.42;22.92;;;11.60;99.90;;;;;;4975201;28;20038;-76
2023/03/23 07:52:23;;;;;;;23.17;21.88;;;11.60;99.90;;;;;;4985264;28;20853;-77
2023/03/23 07:54:50;;;;;;;23.92;22.23;;;11.70;99.90;;;;;;4985812;28;20446;-76
2023/03/23 07:57:43;;;;;;;27.20;24.70;;;11.80;99.90;;;;;;4959654;28;20092;-76
2023/03/23 08:00:15;;;;;;;26.60;24.67;;;11.90;99.90;;;;;;4990942;28;20041;-76
2023/03/23 08:02:42;;;;;;;26.48;24.65;;;11.90;99.90;;;;;;5007565;28;20088;-76
2023/03/23 08:05:32;;;;;;;24.98;23.48;;;11.90;99.90;;;;;;4988003;28;20045;-77
2023/03/23 08:08:12;;;;;;;24.52;22.63;;;11.90;99.90;;;;;;4983972;28;20042;-75
2023/03/23 08:10:56;;;;;;;25.40;23.60;;;11.80;99.90;;;;;;4992416;28;20040;-77
2023/03/23 08:13:49;;;;;;;25.50;24.10;;;11.90;99.90;;;;;;4984834;28;20128;-77
2023/03/23 08:16:35;;;;;;;30.38;28.38;;;11.90;99.90;;;;;;4966928;28;20446;-75
2023/03/23 08:19:02;;;;;;;28.48;26.38;;;11.90;99.90;;;;;;4992660;28;20122;-75
2023/03/23 08:21:46;;;;;;;26.27;24.58;;;11.90;99.90;;;;;;5011282;28;20077;-77
2023/03/23 08:24:41;;;;;;;26.40;24.80;;;12.00;99.90;;;;;;4982776;28;20128;-74
2023/03/23 08:27:28;;;;;;;26.77;25.20;;;12.00;99.90;;;;;;5003547;28;20045;-74
2023/03/23 08:30:19;;;;;;;29.27;26.77;;;12.10;99.90;;;;;;5023330;28;20534;-74
2023/03/23 08:33:04;;;;;;;26.20;24.40;;;12.10;99.90;;;;;;5004886;28;20070;-75
2023/03/23 08:35:59;;;;;;;25.05;23.23;;;12.20;99.90;;;;;;5004459;28;20102;-74
2023/03/23 08:38:45;;;;;;;28.33;26.13;;;12.30;99.90;;;;;;4985710;28;20225;-76
2023/03/23 08:41:20;;;;;;;25.33;23.73;;;12.20;99.90;;;;;;4986795;28;20520;-77
2023/03/23 08:43:59;;;;;;;27.58;25.55;;;12.30;99.90;;;;;;4991962;28;20037;-75
2023/03/23 08:46:57;;;;;;;25.08;23.67;;;12.20;99.90;;;;;;4955262;28;20520;-74
2023/03/23 08:49:45;;;;;;;26.52;24.63;;;12.20;99.90;;;;;;4980349;28;20042;-77
2023/03/23 08:52:37;;;;;;;30.50;27.95;;;12.20;99.90;;;;;;4978130;28;20049;-76
2023/03/23 08:55:28;;;;;;;29.77;27.25;;;12.30;99.90;;;;;;4983392;28;20069;-75
2023/03/23 08:58:20;;;;;;;26.95;24.77;;;12.30;99.90;;;;;;4980095;28;20041;-75
2023/03/23 09:01:00;;;;;;;23.65;21.75;;;12.20;99.90;;;;;;4987402;28;20506;-73
2023/03/23 09:03:46;;;;;;;23.35;21.75;;;12.30;99.90;;;;;;4978477;28;20057;-75
2023/03/23 09:06:36;;;;;;;24.73;22.50;;;12.20;99.90;;;;;;4988372;28;20038;-75
2023/03/23 09:09:06;;;;;;;23.67;22.05;;;12.30;99.90;;;;;;4982128;28;20053;-75
2023/03/23 09:11:36;;;;;;;24.42;22.50;;;12.20;99.90;;;;;;5000023;28;20045;-74
2023/03/23 09:14:03;;;;;;;22.75;20.92;;;12.30;99.90;;;;;;4985209;28;20133;-75
2023/03/23 09:16:29;;;;;;;23.88;22.00;;;12.30;99.90;;;;;;4981329;28;20034;-76
2023/03/23 09:18:56;;;;;;;24.75;22.92;;;12.30;99.90;;;;;;5000097;28;20053;-74
2023/03/23 09:21:23;;;;;;;23.73;22.30;;;12.40;99.90;;;;;;4996719;28;20624;-74
2023/03/23 09:23:49;;;;;;;23.40;21.90;;;12.60;99.90;;;;;;4987247;28;20038;-75
2023/03/23 09:26:15;;;;;;;25.15;23.60;;;12.60;99.90;;;;;;4978849;28;20045;-74
2023/03/23 09:28:41;;;;;;;23.88;22.35;;;12.60;99.90;;;;;;4981292;28;20037;-75
2023/03/23 09:31:07;;;;;;;23.90;22.08;;;12.80;99.90;;;;;;4996651;28;20088;-75
2023/03/23 09:33:33;;;;;;;22.90;21.38;;;12.70;99.90;;;;;;4988447;28;20121;-75
2023/03/23 09:35:59;;;;;;;24.38;22.63;;;12.80;99.90;;;;;;4982016;28;20069;-75
2023/03/23 09:38:25;;;;;;;24.45;22.33;;;12.70;99.90;;;;;;4980095;28;20515;-74
2023/03/23 09:41:20;;;;;;;23.85;22.35;;;12.80;99.90;;;;;;4965109;28;20038;-74
2023/03/23 09:43:56;;;;;;;24.70;22.83;;;12.80;99.90;;;;;;4994503;28;20034;-74
2023/03/23 09:46:47;;;;;;;23.95;22.40;;;12.70;99.90;;;;;;4993206;28;20048;-74
2023/03/23 09:49:36;;;;;;;23.15;21.70;;;12.70;99.90;;;;;;4983057;28;20085;-75
2023/03/23 09:52:14;;;;;;;23.13;21.83;;;12.70;99.90;;;;;;4984912;28;20053;-75
2023/03/23 09:54:51;;;;;;;23.58;22.23;;;12.80;99.90;;;;;;4995145;28;20168;-76
2023/03/23 09:58:00;;;;;;;24.13;22.50;;;12.80;99.90;;;;;;4980942;28;20044;-75
2023/03/23 10:00:35;;;;;;;23.27;22.08;;;12.90;99.90;;;;;;4986426;28;20045;-74
2023/03/23 10:03:17;;;;;;;24.63;23.33;;;12.80;99.90;;;;;;4988201;28;20045;-75
2023/03/23 10:05:47;;;;;;;24.13;22.70;;;12.90;99.90;;;;;;5006087;28;20045;-76
2023/03/23 10:08:17;;;;;;;24.45;22.83;;;12.90;99.90;;;;;;5000866;28;20046;-75
2023/03/23 10:11:01;;;;;;;24.05;22.25;;;12.90;99.90;;;;;;4968381;28;20034;-74
2023/03/23 10:13:36;;;;;;;23.75;22.40;;;12.90;99.90;;;;;;4998829;28;20085;-76
2023/03/23 10:16:04;;;;;;;23.92;22.48;;;12.90;99.90;;;;;;4991872;28;20144;-72
2023/03/23 10:18:40;;;;;;;26.95;24.95;;;12.90;99.90;;;;;;4990240;28;20443;-76
2023/03/23 10:21:13;;;;;;;31.55;28.95;;;13.00;99.90;;;;;;4986427;28;20046;-74
2023/03/23 10:23:48;;;;;;;24.42;22.63;;;12.90;99.90;;;;;;4986099;28;20037;-74
2023/03/23 10:26:38;;;;;;;25.00;23.42;;;12.90;99.90;;;;;;4988040;28;20041;-75
2023/03/23 10:29:21;;;;;;;24.48;22.98;;;12.90;99.90;;;;;;4983602;28;20053;-76
2023/03/23 10:32:01;;;;;;;24.67;22.90;;;12.80;99.90;;;;;;4977978;28;20034;-73
2023/03/23 10:34:50;;;;;;;25.27;23.58;;;12.80;99.90;;;;;;4964985;28;20036;-74
2023/03/23 10:37:18;;;;;;;25.83;24.27;;;12.90;99.90;;;;;;4963910;28;20063;-73
2023/03/23 10:39:55;;;;;;;24.80;23.10;;;12.90;99.90;;;;;;5000022;28;20065;-75
2023/03/23 10:42:27;;;;;;;23.17;21.77;;;13.00;99.90;;;;;;4996764;28;20045;-73
2023/03/23 10:44:56;;;;;;;24.63;23.02;;;13.20;99.90;;;;;;4990127;28;20772;-74
2023/03/23 10:47:22;;;;;;;24.15;22.25;;;13.20;99.90;;;;;;4979892;28;20048;-72
2023/03/23 10:49:55;;;;;;;25.25;23.23;;;13.20;99.90;;;;;;4999899;28;20105;-76
2023/03/23 10:52:42;;;;;;;24.50;22.42;;;13.20;99.90;;;;;;4980002;28;20072;-74
2023/03/23 10:55:09;;;;;;;26.20;23.73;;;13.30;99.90;;;;;;4986725;28;20036;-75
2023/03/23 10:57:37;;;;;;;23.50;21.90;;;13.30;99.90;;;;;;4980689;28;20047;-74
2023/03/23 11:00:29;;;;;;;23.92;22.23;;;13.20;99.90;;;;;;4978931;28;20137;-71
2023/03/23 11:03:00;;;;;;;25.08;23.15;;;13.20;99.90;;;;;;4968144;28;20061;-76
2023/03/23 11:05:51;;;;;;;24.67;22.88;;;13.30;99.90;;;;;;4994703;28;20048;-75
2023/03/23 11:08:20;;;;;;;24.30;22.45;;;13.30;99.90;;;;;;4996123;28;20037;-76
2023/03/23 11:10:59;;;;;;;23.45;21.75;;;13.20;99.90;;;;;;4981466;28;20046;-75
2023/03/23 11:13:32;;;;;;;23.05;21.45;;;13.20;99.90;;;;;;4996613;28;20132;-74
2023/03/23 11:15:58;;;;;;;23.27;21.63;;;13.20;99.90;;;;;;4981671;28;20029;-72
2023/03/23 11:18:27;;;;;;;25.85;23.95;;;13.30;99.90;;;;;;4978879;28;20145;-73
2023/03/23 11:20:56;;;;;;;27.45;25.42;;;13.40;99.90;;;;;;4982222;28;20042;-72
2023/03/23 11:23:27;;;;;;;26.75;24.92;;;13.40;99.90;;;;;;4986175;28;21263;-74
2023/03/23 11:26:04;;;;;;;25.65;23.83;;;13.40;99.90;;;;;;5009624;28;20042;-73
2023/03/23 11:28:42;;;;;;;26.23;24.55;;;13.40;99.90;;;;;;4991480;28;20603;-76
2023/03/23 11:31:09;;;;;;;25.52;23.70;;;13.50;99.90;;;;;;5001425;28;20038;-76
2023/03/23 11:33:52;;;;;;;25.92;24.17;;;13.50;99.90;;;;;;5001843;28;20042;-75
2023/03/23 11:36:19;;;;;;;28.42;26.33;;;13.50;99.90;;;;;;4972679;28;20579;-75
2023/03/23 11:38:45;;;;;;;27.77;25.85;;;13.60;99.90;;;;;;4985503;28;20064;-74
2023/03/23 11:41:12;;;;;;;30.20;27.60;;;13.60;99.90;;;;;;4985333;28;20045;-74
2023/03/23 11:43:45;;;;;;;31.45;29.00;;;13.60;99.90;;;;;;4987447;28;20042;-74
2023/03/23 11:46:25;;;;;;;36.00;32.58;;;13.60;99.90;;;;;;4998950;28;20041;-74
2023/03/23 11:49:02;;;;;;;32.33;29.92;;;13.50;99.90;;;;;;4983968;28;20034;-76
2023/03/23 11:51:31;;;;;;;28.00;25.98;;;13.30;99.90;;;;;;4988290;28;20133;-74
2023/03/23 11:54:26;;;;;;;35.67;32.40;;;13.20;99.90;;;;;;4981457;28;20038;-75
2023/03/23 11:56:52;;;;;;;26.90;24.80;;;13.20;99.90;;;;;;4998040;28;20040;-73
2023/03/23 11:59:31;;;;;;;24.88;22.90;;;13.20;99.90;;;;;;4985006;28;20665;-74
2023/03/23 12:02:12;;;;;;;27.23;25.35;;;13.10;99.90;;;;;;4975156;28;20045;-75
2023/03/23 12:04:48;;;;;;;28.23;26.00;;;13.10;99.90;;;;;;4975486;28;20042;-73
2023/03/23 12:07:55;;;;;;;28.17;26.13;;;13.10;99.90;;;;;;4971923;28;20101;-72
2023/03/23 12:10:27;;;;;;;27.13;25.02;;;13.20;99.90;;;;;;4998448;28;20203;-75
2023/03/23 12:13:41;;;;;;;27.10;25.15;;;13.10;99.90;;;;;;5009285;28;20041;-74
2023/03/23 12:16:22;;;;;;;24.20;22.60;;;13.00;99.90;;;;;;4951104;28;20676;-73
2023/03/23 12:18:57;;;;;;;22.85;21.30;;;13.10;99.90;;;;;;4985243;28;20725;-75
2023/03/23 12:21:45;;;;;;;21.63;19.92;;;13.00;99.90;;;;;;4978805;28;20037;-73
2023/03/23 12:24:21;;;;;;;19.13;17.67;;;12.50;99.90;;;;;;4987948;28;20026;-76
2023/03/23 12:26:56;;;;;;;15.55;14.10;;;11.90;99.90;;;;;;4997570;28;20618;-75
2023/03/23 12:29:31;;;;;;;15.23;13.68;;;11.60;99.90;;;;;;4969053;28;20038;-77
2023/03/23 12:32:17;;;;;;;13.77;12.18;;;11.30;99.90;;;;;;4976278;28;20136;-76
2023/03/23 12:35:26;;;;;;;15.13;11.77;;;11.00;99.90;;;;;;4978374;28;20030;-78
2023/03/23 12:38:25;;;;;;;11.48;9.90;;;10.90;99.90;;;;;;4969031;28;20078;-78
2023/03/23 12:41:03;;;;;;;9.60;8.85;;;10.80;99.90;;;;;;4989920;28;20054;-77
2023/03/23 12:43:50;;;;;;;9.68;8.73;;;10.70;99.90;;;;;;4984394;28;20045;-76
2023/03/23 12:46:38;;;;;;;8.82;8.07;;;10.60;99.90;;;;;;4984958;28;20077;-77
2023/03/23 12:49:11;;;;;;;9.73;9.13;;;10.50;99.90;;;;;;4985597;28;20065;-76
2023/03/23 12:52:02;;;;;;;9.98;9.27;;;10.50;99.90;;;;;;5002481;28;20049;-77
2023/03/23 12:54:51;;;;;;;10.43;9.63;;;10.50;99.90;;;;;;4983047;28;20026;-80
2023/03/23 12:57:37;;;;;;;9.25;8.43;;;10.60;99.90;;;;;;4978926;28;20049;-76
2023/03/23 13:00:18;;;;;;;9.70;8.80;;;10.60;99.90;;;;;;4970462;28;20053;-80
2023/03/23 13:02:51;;;;;;;8.18;7.15;;;10.50;99.90;;;;;;4982489;28;20042;-79
2023/03/23 13:05:23;;;;;;;8.05;6.57;;;10.50;99.90;;;;;;4983547;28;20066;-79
2023/03/23 13:08:05;;;;;;;9.00;8.10;;;10.40;99.90;;;;;;4964718;28;20042;-78